createdAt,value
2023-01-30T00:01:02.270Z,97746.31
2023-01-30T00:03:29.985Z,97750.91
2023-01-30T00:05:57.676Z,97752.66
2023-01-30T00:08:25.441Z,97747.53
2023-01-30T00:10:53.154Z,97754.09
2023-01-30T00:13:20.943Z,97763.50
2023-01-30T00:15:48.709Z,97752.66
2023-01-30T00:18:16.507Z,97748.56
2023-01-30T00:20:44.168Z,97758.69
2023-01-30T00:23:11.947Z,97759.84
2023-01-30T00:25:39.979Z,97754.13
2023-01-30T00:28:07.806Z,97752.53
2023-01-30T00:30:35.578Z,97749.50
2023-01-30T00:33:03.420Z,97746.97
2023-01-30T00:35:31.178Z,97737.56
2023-01-30T00:37:59.184Z,97749.81
2023-01-30T00:40:27.676Z,97752.50
2023-01-30T00:43:14.632Z,97749.47
2023-01-30T00:46:02.070Z,97749.13
2023-01-30T00:48:29.780Z,97752.34
2023-01-30T00:50:57.623Z,97748.31
2023-01-30T00:53:25.526Z,97749.16
2023-01-30T00:55:53.616Z,97752.84
2023-01-30T00:58:21.974Z,97748.06
2023-01-30T01:00:50.225Z,97748.50
2023-01-30T01:03:18.190Z,97746.28
2023-01-30T01:05:46.094Z,97744.19
2023-01-30T01:08:15.066Z,97742.44
2023-01-30T01:10:42.961Z,97743.91
2023-01-30T01:13:10.873Z,97740.09
2023-01-30T01:15:38.663Z,97732.13
2023-01-30T01:18:06.462Z,97736.34
2023-01-30T01:20:34.163Z,97740.25
2023-01-30T01:23:03.778Z,97735.09
2023-01-30T01:25:31.457Z,97727.06
2023-01-30T01:27:59.191Z,97733.56
2023-01-30T01:30:26.920Z,97731.34
2023-01-30T01:32:54.708Z,97728.88
2023-01-30T01:35:22.434Z,97729.59
2023-01-30T01:37:54.755Z,97729.13
2023-01-30T01:40:41.635Z,97719.78
2023-01-30T01:43:15.453Z,97719.47
2023-01-30T01:45:43.520Z,97716.84
2023-01-30T01:48:21.293Z,97718.56
2023-01-30T01:50:52.414Z,97720.91
2023-01-30T01:53:21.588Z,97730.19
2023-01-30T01:55:50.278Z,97731.47
2023-01-30T01:58:25.766Z,97729.63
2023-01-30T02:00:54.194Z,97724.41
2023-01-30T02:03:23.401Z,97727.59
2023-01-30T02:05:52.635Z,97724.66
2023-01-30T02:08:23.418Z,97723.88
2023-01-30T02:11:18.180Z,97705.94
2023-01-30T02:13:46.640Z,97718.69
2023-01-30T02:16:14.554Z,97710.03
2023-01-30T02:18:42.354Z,97704.94
2023-01-30T02:21:41.242Z,97701.22
2023-01-30T02:24:11.687Z,97690.75
2023-01-30T02:26:57.691Z,97694.16
2023-01-30T02:29:35.675Z,97691.38
2023-01-30T02:32:25.036Z,97699.91
2023-01-30T02:35:05.542Z,97697.47
2023-01-30T02:38:11.001Z,97697.41
2023-01-30T02:40:44.845Z,97705.53
2023-01-30T02:43:31.068Z,97706.19
2023-01-30T02:46:14.030Z,97703.16
2023-01-30T02:49:09.162Z,97699.81
2023-01-30T02:51:39.569Z,97697.53
2023-01-30T02:54:07.949Z,97698.22
2023-01-30T02:56:57.198Z,97700.13
2023-01-30T02:59:32.160Z,97700.63
2023-01-30T03:02:37.633Z,97702.03
2023-01-30T03:05:14.606Z,97697.84
2023-01-30T03:08:18.308Z,97693.53
2023-01-30T03:10:52.072Z,97688.66
2023-01-30T03:13:20.284Z,97686.47
2023-01-30T03:15:54.237Z,97689.31
2023-01-30T03:18:22.619Z,97689.94
2023-01-30T03:20:51.503Z,97689.00
2023-01-30T03:23:19.792Z,97682.97
2023-01-30T03:25:47.732Z,97686.75
2023-01-30T03:28:18.158Z,97682.97
2023-01-30T03:30:45.909Z,97688.84
2023-01-30T03:33:14.934Z,97686.44
2023-01-30T03:35:48.224Z,97686.44
2023-01-30T03:38:16.143Z,97676.09
2023-01-30T03:40:44.431Z,97689.31
2023-01-30T03:43:12.328Z,97678.34
2023-01-30T03:45:40.104Z,97678.50
2023-01-30T03:48:08.252Z,97671.66
2023-01-30T03:50:35.975Z,97668.16
2023-01-30T03:53:04.011Z,97665.78
2023-01-30T03:55:31.682Z,97669.59
2023-01-30T03:57:59.601Z,97663.84
2023-01-30T04:00:32.208Z,97661.94
2023-01-30T04:03:00.983Z,97664.81
2023-01-30T04:05:29.078Z,97652.41
2023-01-30T04:08:03.231Z,97657.31
2023-01-30T04:10:31.483Z,97652.69
2023-01-30T04:12:59.151Z,97644.41
2023-01-30T04:15:27.498Z,97648.25
2023-01-30T04:18:13.837Z,97650.34
2023-01-30T04:21:01.834Z,97642.50
2023-01-30T04:23:35.742Z,97643.16
2023-01-30T04:26:05.098Z,97649.19
2023-01-30T04:28:36.202Z,97651.09
2023-01-30T04:31:04.645Z,97653.19
2023-01-30T04:33:41.465Z,97654.13
2023-01-30T04:36:10.414Z,97650.50
2023-01-30T04:38:38.598Z,97655.88
2023-01-30T04:41:07.693Z,97647.94
2023-01-30T04:43:38.602Z,97644.72
2023-01-30T04:46:15.345Z,97638.22
2023-01-30T04:48:43.706Z,97644.13
2023-01-30T04:51:11.675Z,97645.88
2023-01-30T04:53:39.676Z,97646.88
2023-01-30T04:56:08.224Z,97645.56
2023-01-30T04:58:36.148Z,97650.19
2023-01-30T05:01:23.350Z,97644.97
2023-01-30T05:03:52.599Z,97645.44
2023-01-30T05:06:20.634Z,97642.88
2023-01-30T05:08:52.325Z,97642.88
2023-01-30T05:11:20.426Z,97647.31
2023-01-30T05:13:48.284Z,97652.88
2023-01-30T05:16:16.379Z,97650.16
2023-01-30T05:18:44.338Z,97642.19
2023-01-30T05:21:19.464Z,97653.84
2023-01-30T05:23:47.265Z,97642.22
2023-01-30T05:26:15.189Z,97639.69
2023-01-30T05:28:43.048Z,97643.63
2023-01-30T05:31:12.098Z,97640.16
2023-01-30T05:33:40.573Z,97643.19
2023-01-30T05:36:08.898Z,97652.09
2023-01-30T05:38:36.623Z,97645.72
2023-01-30T05:41:05.660Z,97648.28
2023-01-30T05:43:33.845Z,97653.97
2023-01-30T05:46:02.307Z,97655.25
2023-01-30T05:48:30.080Z,97654.97
2023-01-30T05:50:58.440Z,97645.56
2023-01-30T05:53:30.969Z,97646.38
2023-01-30T05:55:59.834Z,97647.97
2023-01-30T05:58:27.882Z,97652.72
2023-01-30T06:01:00.132Z,97657.03
2023-01-30T06:03:27.927Z,97651.13
2023-01-30T06:05:55.716Z,97648.78
2023-01-30T06:08:23.719Z,97643.34
2023-01-30T06:10:51.463Z,97651.16
2023-01-30T06:13:19.146Z,97652.06
2023-01-30T06:15:46.993Z,97656.66
2023-01-30T06:18:14.749Z,97650.13
2023-01-30T06:20:48.149Z,97659.06
2023-01-30T06:23:16.067Z,97651.16
2023-01-30T06:25:44.932Z,97656.41
2023-01-30T06:28:12.805Z,97660.06
2023-01-30T06:30:40.628Z,97654.97
2023-01-30T06:33:08.588Z,97660.38
2023-01-30T06:35:39.451Z,97658.78
2023-01-30T06:38:09.621Z,97657.34
2023-01-30T06:40:38.135Z,97657.03
2023-01-30T06:43:05.826Z,97661.00
2023-01-30T06:45:33.738Z,97660.03
2023-01-30T06:48:01.430Z,97661.97
2023-01-30T06:50:29.347Z,97659.41
2023-01-30T06:52:57.127Z,97663.72
2023-01-30T06:55:26.566Z,97663.06
2023-01-30T06:58:08.232Z,97669.91
2023-01-30T07:00:36.241Z,97662.44
2023-01-30T07:03:04.048Z,97672.13
2023-01-30T07:05:31.899Z,97661.94
2023-01-30T07:07:59.560Z,97671.16
2023-01-30T07:10:29.148Z,97668.31
2023-01-30T07:12:56.828Z,97665.47
2023-01-30T07:15:24.556Z,97664.38
2023-01-30T07:17:52.224Z,97674.69
2023-01-30T07:20:20.040Z,97670.72
2023-01-30T07:22:55.043Z,97664.66
2023-01-30T07:25:23.629Z,97661.97
2023-01-30T07:27:56.678Z,97662.44
2023-01-30T07:30:25.063Z,97663.88
2023-01-30T07:32:54.621Z,97664.81
2023-01-30T07:35:23.169Z,97661.00
2023-01-30T07:37:51.292Z,97674.03
2023-01-30T07:40:19.779Z,97669.44
2023-01-30T07:43:10.584Z,97662.41
2023-01-30T07:45:41.341Z,97660.34
2023-01-30T07:48:09.993Z,97653.53
2023-01-30T07:50:37.691Z,97659.72
2023-01-30T07:53:06.077Z,97658.00
2023-01-30T07:55:34.099Z,97654.47
2023-01-30T07:58:01.841Z,97657.50
2023-01-30T08:00:29.671Z,97649.06
2023-01-30T08:02:57.340Z,97643.00
2023-01-30T08:05:25.221Z,97648.13
2023-01-30T08:07:53.695Z,97646.19
2023-01-30T08:10:21.668Z,97640.47
2023-01-30T08:12:52.419Z,97634.59
2023-01-30T08:15:21.955Z,97641.91
2023-01-30T08:17:55.265Z,97632.50
2023-01-30T08:20:23.549Z,97628.81
2023-01-30T08:22:51.281Z,97620.25
2023-01-30T08:25:19.164Z,97626.59
2023-01-30T08:27:46.888Z,97626.94
2023-01-30T08:30:14.782Z,97633.13
2023-01-30T08:32:42.462Z,97638.09
2023-01-30T08:35:10.435Z,97638.25
2023-01-30T08:37:41.603Z,97640.16
2023-01-30T08:40:09.939Z,97629.00
2023-01-30T08:42:37.671Z,97629.97
2023-01-30T08:45:05.896Z,97621.22
2023-01-30T08:47:35.618Z,97628.50
2023-01-30T08:50:04.337Z,97614.81
2023-01-30T08:52:35.294Z,97613.22
2023-01-30T08:55:03.566Z,97615.44
2023-01-30T08:57:32.613Z,97624.06
2023-01-30T09:00:00.638Z,97620.25
2023-01-30T09:02:28.461Z,97615.50
2023-01-30T09:04:56.228Z,97610.91
2023-01-30T09:07:23.968Z,97605.28
2023-01-30T09:09:51.710Z,97609.00
2023-01-30T09:12:19.395Z,97603.28
2023-01-30T09:14:47.137Z,97597.03
2023-01-30T09:17:14.827Z,97606.56
2023-01-30T09:19:42.597Z,97603.44
2023-01-30T09:22:10.384Z,97602.47
2023-01-30T09:24:38.122Z,97597.28
2023-01-30T09:27:05.846Z,97597.53
2023-01-30T09:29:33.586Z,97589.25
2023-01-30T09:32:01.268Z,97596.91
2023-01-30T09:34:29.126Z,97587.16
2023-01-30T09:37:02.555Z,97580.69
2023-01-30T09:39:31.483Z,97582.41
2023-01-30T09:42:05.259Z,97584.28
2023-01-30T09:45:10.115Z,97574.97
2023-01-30T09:48:02.928Z,97569.41
2023-01-30T09:50:42.918Z,97567.50
2023-01-30T09:53:29.970Z,97560.69
2023-01-30T09:55:58.265Z,97566.53
2023-01-30T09:58:27.689Z,97563.69
2023-01-30T10:00:59.762Z,97557.88
2023-01-30T10:03:34.948Z,97542.69
2023-01-30T10:06:05.853Z,97547.69
2023-01-30T10:08:36.546Z,97528.84
2023-01-30T10:11:16.147Z,97527.09
2023-01-30T10:13:50.675Z,97521.41
2023-01-30T10:16:22.933Z,97515.63
2023-01-30T10:19:35.621Z,97511.06
2023-01-30T10:22:18.977Z,97497.22
2023-01-30T10:24:55.447Z,97486.75
2023-01-30T10:27:23.152Z,97486.78
2023-01-30T10:30:01.744Z,97480.56
2023-01-30T10:32:41.841Z,97486.34
2023-01-30T10:35:31.257Z,97475.50
2023-01-30T10:38:12.776Z,97464.03
2023-01-30T10:40:47.208Z,97475.59
2023-01-30T10:43:41.417Z,97452.28
2023-01-30T10:46:19.315Z,97446.22
2023-01-30T10:49:05.123Z,97446.38
2023-01-30T10:52:10.416Z,97438.84
2023-01-30T10:54:42.904Z,97435.25
2023-01-30T10:57:19.828Z,97429.75
2023-01-30T10:59:54.737Z,97426.00
2023-01-30T11:02:38.678Z,97419.84
2023-01-30T11:05:17.343Z,97411.94
2023-01-30T11:07:46.312Z,97402.91
2023-01-30T11:10:24.967Z,97388.78
2023-01-30T11:12:56.949Z,97386.53
2023-01-30T11:15:27.407Z,97379.75
2023-01-30T11:18:27.743Z,97371.72
2023-01-30T11:21:08.211Z,97371.53
2023-01-30T11:23:40.353Z,97359.25
2023-01-30T11:26:11.576Z,97354.00
2023-01-30T11:28:41.668Z,97354.88
2023-01-30T11:31:40.561Z,97358.06
2023-01-30T11:34:14.936Z,97353.00
2023-01-30T11:36:42.697Z,97344.69
2023-01-30T11:39:13.526Z,97343.78
2023-01-30T11:42:05.842Z,97331.97
2023-01-30T11:44:37.301Z,97330.81
2023-01-30T11:47:08.779Z,97324.06
2023-01-30T11:49:50.879Z,97314.00
2023-01-30T11:52:30.413Z,97301.31
2023-01-30T11:55:08.547Z,97299.03
2023-01-30T11:57:48.535Z,97299.47
2023-01-30T12:00:20.527Z,97292.47
2023-01-30T12:02:48.611Z,97286.06
2023-01-30T12:05:28.576Z,97281.75
2023-01-30T12:08:24.658Z,97282.41
2023-01-30T12:11:01.578Z,97272.53
2023-01-30T12:13:34.007Z,97268.00
2023-01-30T12:16:41.685Z,97264.34
2023-01-30T12:19:21.631Z,97261.75
2023-01-30T12:21:54.320Z,97259.06
2023-01-30T12:24:50.391Z,97257.94
2023-01-30T12:27:23.950Z,97258.47
2023-01-30T12:30:03.021Z,97246.09
2023-01-30T12:32:31.975Z,97246.38
2023-01-30T12:34:59.640Z,97238.94
2023-01-30T12:38:02.174Z,97232.59
2023-01-30T12:40:35.695Z,97230.88
2023-01-30T12:43:24.939Z,97226.72
2023-01-30T12:45:55.617Z,97217.84
2023-01-30T12:48:48.503Z,97227.84
2023-01-30T12:51:40.664Z,97223.91
2023-01-30T12:54:23.859Z,97223.25
2023-01-30T12:56:53.356Z,97223.41
2023-01-30T12:59:36.358Z,97219.75
2023-01-30T13:02:51.853Z,97212.94
2023-01-30T13:05:42.695Z,97219.78
2023-01-30T13:08:37.796Z,97213.41
2023-01-30T13:11:45.308Z,97205.81
2023-01-30T13:14:16.073Z,97202.94
2023-01-30T13:16:46.786Z,97203.91
2023-01-30T13:19:17.197Z,97198.00
2023-01-30T13:22:17.800Z,97198.06
2023-01-30T13:25:19.831Z,97189.47
2023-01-30T13:27:54.105Z,97179.78
2023-01-30T13:30:25.215Z,97190.88
2023-01-30T13:32:57.265Z,97183.25
2023-01-30T13:35:32.476Z,97170.63
2023-01-30T13:38:00.476Z,97181.38
2023-01-30T13:40:29.128Z,97174.56
2023-01-30T13:43:04.699Z,97172.50
2023-01-30T13:45:34.243Z,97162.03
2023-01-30T13:48:42.331Z,97171.53
2023-01-30T13:51:45.210Z,97176.00
2023-01-30T13:54:21.968Z,97164.91
2023-01-30T13:56:51.375Z,97152.84
2023-01-30T13:59:28.004Z,97153.16
2023-01-30T14:02:04.805Z,97154.44
2023-01-30T14:04:39.617Z,97145.88
2023-01-30T14:07:30.392Z,97141.66
2023-01-30T14:10:10.480Z,97142.31
2023-01-30T14:12:42.383Z,97144.72
2023-01-30T14:15:16.475Z,97145.13
2023-01-30T14:18:00.141Z,97143.66
2023-01-30T14:20:46.913Z,97143.78
2023-01-30T14:23:34.195Z,97143.56
2023-01-30T14:26:02.058Z,97141.06
2023-01-30T14:28:29.735Z,97133.69
2023-01-30T14:31:01.455Z,97146.50
2023-01-30T14:33:32.968Z,97148.75
2023-01-30T14:36:00.707Z,97148.75
2023-01-30T14:38:38.389Z,97154.53
2023-01-30T14:41:06.883Z,97151.56
2023-01-30T14:43:37.376Z,97150.13
2023-01-30T14:46:08.921Z,97151.75
2023-01-30T14:48:53.297Z,97148.69
2023-01-30T14:51:39.215Z,97136.72
2023-01-30T14:54:13.330Z,97135.22
2023-01-30T14:56:49.873Z,97137.06
2023-01-30T14:59:17.563Z,97130.75
2023-01-30T15:01:57.663Z,97131.63
2023-01-30T15:04:31.772Z,97132.91
2023-01-30T15:07:01.029Z,97129.34
2023-01-30T15:09:28.995Z,97125.28
2023-01-30T15:12:26.816Z,97133.16
2023-01-30T15:15:29.983Z,97116.84
2023-01-30T15:18:08.374Z,97105.44
2023-01-30T15:21:01.540Z,97122.56
2023-01-30T15:24:03.316Z,97123.00
2023-01-30T15:26:37.680Z,97104.13
2023-01-30T15:29:33.345Z,97113.53
2023-01-30T15:32:02.179Z,97111.41
2023-01-30T15:34:31.000Z,97112.31
2023-01-30T15:36:58.697Z,97112.50
2023-01-30T15:39:27.945Z,97112.06
2023-01-30T15:42:00.950Z,97107.88
2023-01-30T15:44:37.620Z,97110.94
2023-01-30T15:47:49.647Z,97106.09
2023-01-30T15:50:18.379Z,97105.44
2023-01-30T15:52:49.329Z,97109.53
2023-01-30T15:55:21.377Z,97111.00
2023-01-30T15:57:51.697Z,97095.91
2023-01-30T16:00:33.798Z,97102.44
2023-01-30T16:03:01.888Z,97092.81
2023-01-30T16:05:29.817Z,97100.25
2023-01-30T16:07:58.055Z,97092.16
2023-01-30T16:10:27.661Z,97079.78
2023-01-30T16:12:56.875Z,97086.97
2023-01-30T16:15:59.895Z,97079.16
2023-01-30T16:18:37.856Z,97081.44
2023-01-30T16:21:22.479Z,97081.06
2023-01-30T16:24:13.237Z,97087.25
2023-01-30T16:26:48.908Z,97072.88
2023-01-30T16:29:20.830Z,97066.72
2023-01-30T16:31:49.718Z,97070.72
2023-01-30T16:34:37.141Z,97068.47
2023-01-30T16:37:16.857Z,97066.44
2023-01-30T16:39:47.851Z,97056.53
2023-01-30T16:42:28.838Z,97064.31
2023-01-30T16:45:35.375Z,97057.25
2023-01-30T16:48:24.303Z,97062.28
2023-01-30T16:51:01.102Z,97046.50
2023-01-30T16:53:29.747Z,97054.78
2023-01-30T16:56:05.718Z,97046.94
2023-01-30T16:58:34.191Z,97044.75
2023-01-30T17:01:03.304Z,97030.84
2023-01-30T17:03:36.843Z,97040.31
2023-01-30T17:06:12.553Z,97040.19
2023-01-30T17:08:54.430Z,97042.03
2023-01-30T17:11:35.837Z,97045.94
2023-01-30T17:14:31.895Z,97049.59
2023-01-30T17:17:03.864Z,97046.66
2023-01-30T17:19:31.695Z,97048.41
2023-01-30T17:22:00.052Z,97054.81
2023-01-30T17:24:28.868Z,97051.00
2023-01-30T17:27:02.275Z,97044.44
2023-01-30T17:29:46.791Z,97038.25
2023-01-30T17:32:15.405Z,97033.47
2023-01-30T17:34:43.238Z,97032.50
2023-01-30T17:37:21.507Z,97028.69
2023-01-30T17:39:49.381Z,97032.81
2023-01-30T17:42:22.099Z,97030.22
2023-01-30T17:44:50.021Z,97025.94
2023-01-30T17:47:17.792Z,97030.69
2023-01-30T17:49:45.507Z,97027.53
2023-01-30T17:52:13.325Z,97020.63
2023-01-30T17:54:41.066Z,97025.28
2023-01-30T17:57:10.426Z,97023.78
2023-01-30T17:59:38.182Z,97020.72
2023-01-30T18:02:06.199Z,97009.84
2023-01-30T18:04:33.931Z,97016.72
2023-01-30T18:07:04.559Z,97014.97
2023-01-30T18:09:32.411Z,97014.84
2023-01-30T18:12:00.227Z,97009.75
2023-01-30T18:14:27.932Z,97000.13
2023-01-30T18:17:00.018Z,97009.00
2023-01-30T18:19:28.375Z,97002.00
2023-01-30T18:21:58.321Z,97017.69
2023-01-30T18:24:26.114Z,96998.22
2023-01-30T18:26:53.866Z,96995.06
2023-01-30T18:29:21.623Z,96991.88
2023-01-30T18:31:49.456Z,97000.13
2023-01-30T18:34:17.392Z,96992.19
2023-01-30T18:36:45.108Z,96994.09
2023-01-30T18:39:13.119Z,96995.34
2023-01-30T18:41:40.792Z,96995.69
2023-01-30T18:44:10.301Z,97000.75
2023-01-30T18:46:38.071Z,97003.59
2023-01-30T18:49:08.211Z,97009.63
2023-01-30T18:51:35.891Z,97002.66
2023-01-30T18:54:03.654Z,97012.16
2023-01-30T18:56:33.137Z,97009.94
2023-01-30T18:59:03.884Z,97007.03
2023-01-30T19:01:34.673Z,97005.63
2023-01-30T19:04:03.568Z,97007.09
2023-01-30T19:06:31.573Z,97004.53
2023-01-30T19:08:59.358Z,97000.06
2023-01-30T19:11:45.981Z,97000.75
2023-01-30T19:14:14.674Z,97008.19
2023-01-30T19:16:42.454Z,96998.00
2023-01-30T19:19:10.279Z,96999.50
2023-01-30T19:21:38.283Z,97002.47
2023-01-30T19:24:07.038Z,96997.44
2023-01-30T19:26:35.308Z,96993.47
2023-01-30T19:29:03.155Z,96985.88
2023-01-30T19:31:31.051Z,96986.31
2023-01-30T19:34:04.720Z,96983.28
2023-01-30T19:36:33.507Z,96973.03
2023-01-30T19:39:03.498Z,96976.88
2023-01-30T19:41:32.922Z,96979.03
2023-01-30T19:44:01.545Z,96969.50
2023-01-30T19:46:29.488Z,96963.22
2023-01-30T19:48:57.564Z,96968.69
2023-01-30T19:51:29.585Z,96972.44
2023-01-30T19:54:02.591Z,96965.72
2023-01-30T19:56:30.545Z,96963.53
2023-01-30T19:58:58.924Z,96960.97
2023-01-30T20:01:29.841Z,96960.16
2023-01-30T20:03:57.779Z,96950.00
2023-01-30T20:06:27.036Z,96958.97
2023-01-30T20:09:02.465Z,96947.41
2023-01-30T20:11:30.240Z,96954.78
2023-01-30T20:13:58.540Z,96956.94
2023-01-30T20:16:27.681Z,96960.41
2023-01-30T20:18:57.770Z,96950.16
2023-01-30T20:21:25.787Z,96949.59
2023-01-30T20:23:53.695Z,96949.19
2023-01-30T20:26:23.109Z,96957.81
2023-01-30T20:28:50.867Z,96954.13
2023-01-30T20:31:20.665Z,96949.47
2023-01-30T20:33:48.672Z,96960.81
2023-01-30T20:36:18.762Z,96949.69
2023-01-30T20:38:47.499Z,96945.28
2023-01-30T20:41:19.535Z,96943.28
2023-01-30T20:43:51.789Z,96945.47
2023-01-30T20:46:21.449Z,96941.47
2023-01-30T20:48:49.572Z,96930.78
2023-01-30T20:51:19.217Z,96931.09
2023-01-30T20:53:51.930Z,96945.97
2023-01-30T20:56:20.324Z,96949.94
2023-01-30T20:58:48.013Z,96943.56
2023-01-30T21:01:18.344Z,96945.00
2023-01-30T21:03:53.126Z,96953.25
2023-01-30T21:06:37.173Z,96953.47
2023-01-30T21:09:15.101Z,96954.16
2023-01-30T21:11:42.925Z,96941.97
2023-01-30T21:14:10.836Z,96948.38
2023-01-30T21:16:38.734Z,96948.13
2023-01-30T21:19:08.283Z,96944.59
2023-01-30T21:21:40.909Z,96959.31
2023-01-30T21:24:11.481Z,96956.53
2023-01-30T21:26:40.123Z,96951.03
2023-01-30T21:29:08.499Z,96938.91
2023-01-30T21:31:37.177Z,96944.09
2023-01-30T21:34:05.745Z,96944.25
2023-01-30T21:36:33.480Z,96950.59
2023-01-30T21:39:19.786Z,96950.91
2023-01-30T21:42:06.107Z,96946.06
2023-01-30T21:44:37.677Z,96957.34
2023-01-30T21:47:05.939Z,96954.41
2023-01-30T21:49:34.043Z,96959.31
2023-01-30T21:52:01.769Z,96954.97
2023-01-30T21:54:29.623Z,96956.84
2023-01-30T21:56:57.386Z,96954.91
2023-01-30T21:59:25.096Z,96963.28
2023-01-30T22:01:52.810Z,96971.81
2023-01-30T22:04:20.578Z,96966.94
2023-01-30T22:06:48.275Z,96969.44
2023-01-30T22:09:16.149Z,96992.66
2023-01-30T22:11:44.014Z,96995.50
2023-01-30T22:14:13.573Z,96989.78
2023-01-30T22:16:41.420Z,96998.72
2023-01-30T22:19:09.736Z,97006.00
2023-01-30T22:21:38.884Z,97007.97
2023-01-30T22:24:08.347Z,96996.97
2023-01-30T22:26:36.721Z,96996.28
2023-01-30T22:29:04.895Z,97007.91
2023-01-30T22:31:36.367Z,97006.63
2023-01-30T22:34:04.523Z,97011.38
2023-01-30T22:36:33.144Z,97014.03
2023-01-30T22:39:01.103Z,97012.72
2023-01-30T22:41:30.170Z,97019.94
2023-01-30T22:43:59.326Z,97019.75
2023-01-30T22:46:31.397Z,97024.84
2023-01-30T22:49:00.060Z,97032.13
2023-01-30T22:51:29.861Z,97030.06
2023-01-30T22:54:02.311Z,97046.34
2023-01-30T22:56:35.146Z,97051.09
2023-01-30T22:59:04.093Z,97050.47
2023-01-30T23:01:37.104Z,97047.88
2023-01-30T23:04:16.260Z,97048.72
2023-01-30T23:06:44.215Z,97048.72
2023-01-30T23:09:14.595Z,97037.38
2023-01-30T23:11:44.094Z,97024.09
2023-01-30T23:14:14.149Z,97021.59
2023-01-30T23:16:44.173Z,97024.06
2023-01-30T23:19:13.054Z,97009.31
2023-01-30T23:21:42.751Z,97008.66
2023-01-30T23:24:18.229Z,97004.19
2023-01-30T23:26:48.113Z,97005.72
2023-01-30T23:29:17.339Z,97000.72
2023-01-30T23:31:45.522Z,96989.97
2023-01-30T23:34:17.790Z,96990.59
2023-01-30T23:36:45.658Z,97004.50
2023-01-30T23:39:13.658Z,96997.81
2023-01-30T23:41:41.746Z,97005.72
2023-01-30T23:44:09.511Z,96999.25
2023-01-30T23:46:39.088Z,97003.91
2023-01-30T23:49:08.600Z,97005.75
2023-01-30T23:51:37.499Z,96998.84
2023-01-30T23:54:05.496Z,96993.06
2023-01-30T23:56:35.616Z,96994.88
2023-01-30T23:59:03.822Z,97003.09
